Grass Valley, California
Current Conditions -  °F | °C
As of 11:20 PM on Tuesday 21 Oct 2014 (Local Time) from KGOO Reporting Station
Clear Clear  
Wind Chill: 50°   Ceiling: Unl
Heat Index: 50°   Visibility: 10mi
Dew Point: 43°   Wind: 0mph
Humidity: 76%   Direction: NA
Pressure: 30.09"   Gusts: NA
Location:  39.22°N, 121.06°W
Report Text: KGOO 220620Z AUTO 00000KT 10SM CLR 10/06 A3009 RMK AO1
Loading
Personal Weather Stations






























Interactive Weather Map
Tropical Storm Tracking
New forecast layout! Learn more

10-Day Weather Forecast

Advertisements
Track Severe Weather on mobile